Utuado, Puerto Rico
Current Conditions -  °F | °C
As of 7:50 AM on Sunday 25 Jan 2015 (Local Time) from TJBQ Reporting Station
Clear Clear  
Wind Chill: 68°   Ceiling: Unl
Heat Index: 68°   Visibility: 10mi
Dew Point: 66°   Wind: 0mph
Humidity: 94%   Direction: NA
Pressure: 30.03"   Gusts: NA
Location:  18.27°N, 66.71°W
Report Text: TJBQ 251150Z 00000KT 10SM SKC 20/19 A3003 RMK RWY 8 ATIS L
Loading
Personal Weather Stations






























Interactive Weather Map New forecast layout! Learn more

10-Day Weather Forecast

Advertisements
Track Severe Weather on mobile